Relatórios de METAR próximas

 

LPAR - Alverca, Portugal
Distance from station: SO 47km
Actualizado: 16/02/2018 17:00
NÃO Actual
Parc. Nublado
Parc. Nublado
 Vento de varies
Vento: varies 0 km/h
Temperatura: 16°C
Ponto de Orvalho: 11°C
Humidade: 72%
Barómetro: 1022 hPa
Nuvens: Parc. Nublado
Visibilidade: 10 km
Cloud details: Parc. Nublado 762 m
2018/02/16 17:00 LPAR 161700Z /////KT 9999 SCT025 16/11 Q1022
LPPT - Lisbon/Portela, Portugal
Distance from station: SO 61km
Actualizado: 18/02/2018 04:30
Céu Limpo
Céu Limpo
 Vento de NNO
Vento: NNO 9 km/h
Temperatura: 9°C
Índice Frio: 7°C
Ponto de Orvalho: 5°C
Humidade: 76%
Barómetro: 1023 hPa
Resumo: Céu Limpo
Visibilidade: greater than 10 km
2018/02/18 04:30 LPPT 180430Z 34005KT CAVOK 09/05 Q1023
 
LPMT - Montijo (por-Afb, Portugal
Distance from station: SO 62km
Actualizado: 18/02/2018 04:00
Céu Limpo
Céu Limpo
 Vento de varies
Vento: varies 4 km/h
Temperatura: 6°C
Ponto de Orvalho: 6°C
Humidade: 100%
Barómetro: 1023 hPa
Resumo: Céu Limpo
Visibilidade: greater than 10 km
2018/02/18 04:00 LPMT 180400Z VRB02KT CAVOK 06/06 Q1023
LPST - Sintra/Granja (a, Portugal
Distance from station: OSO 72km
Actualizado: 16/02/2018 17:00
NÃO Actual
Muito Nublado
Muito Nublado
 Vento de ONO
Vento: ONO 19 km/h
Temperatura: 13°C
Ponto de Orvalho: 10°C
Humidade: 82%
Barómetro: 1023 hPa
Nuvens: Muito Nublado
Visibilidade: 10 km
Cloud details: Few Clouds 610 m
Muito Nublado 762 m
2018/02/16 17:00 LPST 161700Z 29010KT 9999 FEW020 BKN025 13/10 Q1023
 
LPMR - Monte Real(Por-A, Portugal
Distance from station: NNO 80km
Actualizado: 18/02/2018 04:00
Parc. Nublado
Parc. Nublado
 Vento de calm
Vento: Calmo
Temperatura: 4°C
Ponto de Orvalho: 4°C
Humidade: 100%
Barómetro: 1024 hPa
Nuvens: Parc. Nublado
Visibilidade: 7 km
2018/02/18 04:00 LPMR 180400Z 00000KT 7000 NSC 04/04 Q1024
LPBJ - Beja (por/Ger-Af, Portugal
Distance from station: SSE 139km
Actualizado: 18/02/2018 04:00
Nearby fog, Parc. Nublado
Nearby fog, Parc. Nublado
 Vento de N
Vento: N 7 km/h
Temperatura: 7°C
Índice Frio: 6°C
Ponto de Orvalho: 7°C
Humidade: 100%
Barómetro: 1022 hPa
Resumo: Nearby Fog
Nuvens: Parc. Nublado
Visibilidade: 8 km
2018/02/18 04:00 LPBJ 180400Z 36004KT 8000 VCFG NSC 07/07 Q1022